createdAt,value
2022-11-09T00:01:59.994Z,8.03
2022-11-09T00:04:47.843Z,8.01
2022-11-09T00:07:36.731Z,7.97
2022-11-09T00:10:24.209Z,7.97
2022-11-09T00:13:11.770Z,7.92
2022-11-09T00:16:00.402Z,7.87
2022-11-09T00:18:48.578Z,7.83
2022-11-09T00:21:36.454Z,7.79
2022-11-09T00:24:25.506Z,7.74
2022-11-09T00:27:17.497Z,7.72
2022-11-09T00:30:06.854Z,7.64
2022-11-09T00:32:54.426Z,7.61
2022-11-09T00:35:41.866Z,7.58
2022-11-09T00:38:29.440Z,7.54
2022-11-09T00:41:18.723Z,7.50
2022-11-09T00:44:07.057Z,7.46
2022-11-09T00:46:54.739Z,7.42
2022-11-09T00:49:42.509Z,7.38
2022-11-09T00:52:30.209Z,7.34
2022-11-09T00:55:20.981Z,7.30
2022-11-09T00:58:10.081Z,7.26
2022-11-09T01:01:01.433Z,7.21
2022-11-09T01:03:49.458Z,7.18
2022-11-09T01:06:37.316Z,7.13
2022-11-09T01:09:25.028Z,7.10
2022-11-09T01:12:12.715Z,7.05
2022-11-09T01:15:02.163Z,7.00
2022-11-09T01:17:50.072Z,6.99
2022-11-09T01:20:42.121Z,6.97
2022-11-09T01:23:30.085Z,6.93
2022-11-09T01:26:21.361Z,6.89
2022-11-09T01:29:08.837Z,6.89
2022-11-09T01:31:57.648Z,6.85
2022-11-09T01:34:45.074Z,6.84
2022-11-09T01:37:32.705Z,6.85
2022-11-09T01:40:20.286Z,6.84
2022-11-09T01:43:16.984Z,6.85
2022-11-09T01:46:16.965Z,6.86
2022-11-09T01:49:14.727Z,6.87
2022-11-09T01:52:08.951Z,6.92
2022-11-09T01:55:02.953Z,6.92
2022-11-09T01:57:58.379Z,6.93
2022-11-09T02:00:50.817Z,6.92
2022-11-09T02:03:45.023Z,6.95
2022-11-09T02:06:35.031Z,6.96
2022-11-09T02:09:32.758Z,7.06
2022-11-09T02:12:23.995Z,7.04
2022-11-09T02:15:13.278Z,7.09
2022-11-09T02:18:01.392Z,7.10
2022-11-09T02:20:53.904Z,7.13
2022-11-09T02:23:41.821Z,7.15
2022-11-09T02:26:34.615Z,7.22
2022-11-09T02:29:28.461Z,7.26
2022-11-09T02:32:24.115Z,7.22
2022-11-09T02:35:12.047Z,7.23
2022-11-09T02:38:01.228Z,7.30
2022-11-09T02:40:53.656Z,7.29
2022-11-09T02:43:42.330Z,7.36
2022-11-09T02:46:35.805Z,7.38
2022-11-09T02:49:23.699Z,7.37
2022-11-09T02:52:11.365Z,7.41
2022-11-09T02:55:00.410Z,7.43
2022-11-09T02:57:48.178Z,7.55
2022-11-09T03:00:35.927Z,7.64
2022-11-09T03:03:23.698Z,7.69
2022-11-09T03:06:11.342Z,7.64
2022-11-09T03:08:58.885Z,7.71
2022-11-09T03:11:47.849Z,7.70
2022-11-09T03:14:35.305Z,7.74
2022-11-09T03:17:23.046Z,7.74
2022-11-09T03:20:11.962Z,7.75
2022-11-09T03:23:00.823Z,7.78
2022-11-09T03:25:48.825Z,7.83
2022-11-09T03:28:37.952Z,7.88
2022-11-09T03:31:25.443Z,7.90
2022-11-09T03:34:13.063Z,7.89
2022-11-09T03:37:03.373Z,7.82
2022-11-09T03:39:50.889Z,7.92
2022-11-09T03:42:44.208Z,8.07
2022-11-09T03:45:33.213Z,8.08
2022-11-09T03:48:20.548Z,8.17
2022-11-09T03:51:08.132Z,8.12
2022-11-09T03:53:55.651Z,8.13
2022-11-09T03:56:43.698Z,8.09
2022-11-09T03:59:31.375Z,8.18
2022-11-09T04:02:21.144Z,8.16
2022-11-09T04:05:10.974Z,8.23
2022-11-09T04:07:59.554Z,8.24
2022-11-09T04:10:47.149Z,8.26
2022-11-09T04:13:34.869Z,8.28
2022-11-09T04:16:22.412Z,8.29
2022-11-09T04:19:11.332Z,8.30
2022-11-09T04:21:59.019Z,8.28
2022-11-09T04:24:46.517Z,8.28
2022-11-09T04:27:34.078Z,8.26
2022-11-09T04:30:21.500Z,8.31
2022-11-09T04:33:08.970Z,8.30
2022-11-09T04:36:03.799Z,8.30
2022-11-09T04:38:51.531Z,8.31
2022-11-09T04:41:39.196Z,8.40
2022-11-09T04:44:26.771Z,8.41
2022-11-09T04:47:14.247Z,8.39
2022-11-09T04:50:01.855Z,8.36
2022-11-09T04:52:50.633Z,8.37
2022-11-09T04:55:39.207Z,8.35
2022-11-09T04:58:26.905Z,8.41
2022-11-09T05:01:16.009Z,8.36
2022-11-09T05:04:03.791Z,8.38
2022-11-09T05:06:51.271Z,8.41
2022-11-09T05:09:40.389Z,8.40
2022-11-09T05:12:27.848Z,8.43
2022-11-09T05:15:15.389Z,8.39
2022-11-09T05:18:03.953Z,8.38
2022-11-09T05:20:53.847Z,8.45
2022-11-09T05:24:00.518Z,8.48
2022-11-09T05:26:50.136Z,8.52
2022-11-09T05:29:37.645Z,8.50
2022-11-09T05:32:25.487Z,8.51
2022-11-09T05:35:13.357Z,8.51
2022-11-09T05:38:01.339Z,8.43
2022-11-09T05:40:49.925Z,8.49
2022-11-09T05:43:39.541Z,8.50
2022-11-09T05:46:27.062Z,8.48
2022-11-09T05:49:14.843Z,8.53
2022-11-09T05:52:02.550Z,8.56
2022-11-09T05:54:50.201Z,8.57
2022-11-09T05:57:38.566Z,8.55
2022-11-09T06:00:28.628Z,8.55
2022-11-09T06:03:16.394Z,8.54
2022-11-09T06:06:08.859Z,8.62
2022-11-09T06:08:56.706Z,8.62
2022-11-09T06:11:44.466Z,8.62
2022-11-09T06:14:32.443Z,8.63
2022-11-09T06:17:21.631Z,8.60
2022-11-09T06:20:12.183Z,8.61
2022-11-09T06:23:04.017Z,8.63
2022-11-09T06:25:52.112Z,8.63
2022-11-09T06:28:41.138Z,8.62
2022-11-09T06:31:31.587Z,8.61
2022-11-09T06:34:20.522Z,8.61
2022-11-09T06:37:08.009Z,8.60
2022-11-09T06:39:55.493Z,8.58
2022-11-09T06:42:43.188Z,8.59
2022-11-09T06:45:32.251Z,8.60
2022-11-09T06:48:20.801Z,8.59
2022-11-09T06:51:12.632Z,8.62
2022-11-09T06:54:00.455Z,8.64
2022-11-09T06:56:50.689Z,8.65
2022-11-09T06:59:38.488Z,8.68
2022-11-09T07:02:27.984Z,8.68
2022-11-09T07:05:16.254Z,8.67
2022-11-09T07:08:06.374Z,8.70
2022-11-09T07:10:54.075Z,8.70
2022-11-09T07:13:41.798Z,8.69
2022-11-09T07:16:29.496Z,8.65
2022-11-09T07:19:16.955Z,8.62
2022-11-09T07:22:04.759Z,8.62
2022-11-09T07:24:53.928Z,8.72
2022-11-09T07:27:41.623Z,8.82
2022-11-09T07:30:29.379Z,8.83
2022-11-09T07:33:19.642Z,8.82
2022-11-09T07:36:08.185Z,8.85
2022-11-09T07:38:56.626Z,8.83
2022-11-09T07:41:48.460Z,8.87
2022-11-09T07:44:36.339Z,8.90
2022-11-09T07:47:24.171Z,8.92
2022-11-09T07:50:12.426Z,8.96
2022-11-09T07:53:02.274Z,8.99
2022-11-09T07:55:59.229Z,9.02
2022-11-09T07:58:50.924Z,8.97
2022-11-09T08:01:38.913Z,9.05
2022-11-09T08:04:27.340Z,9.04
2022-11-09T08:07:40.545Z,9.09
2022-11-09T08:10:30.154Z,9.10
2022-11-09T08:13:18.623Z,9.10
2022-11-09T08:16:10.046Z,9.10
2022-11-09T08:18:57.993Z,9.09
2022-11-09T08:21:45.609Z,9.13
2022-11-09T08:24:33.431Z,9.16
2022-11-09T08:27:22.763Z,9.14
2022-11-09T08:30:18.212Z,9.13
2022-11-09T08:33:07.528Z,9.14
2022-11-09T08:35:55.257Z,9.18
2022-11-09T08:38:44.459Z,9.19
2022-11-09T08:41:33.846Z,9.22
2022-11-09T08:44:22.511Z,9.23
2022-11-09T08:47:10.203Z,9.25
2022-11-09T08:49:59.185Z,9.29
2022-11-09T08:52:46.952Z,9.30
2022-11-09T08:55:34.735Z,9.39
2022-11-09T08:58:24.622Z,9.42
2022-11-09T09:01:16.961Z,9.44
2022-11-09T09:04:04.916Z,9.48
2022-11-09T09:06:54.143Z,9.53
2022-11-09T09:09:42.264Z,9.56
2022-11-09T09:12:29.860Z,9.53
2022-11-09T09:15:17.898Z,9.57
2022-11-09T09:18:06.059Z,9.58
2022-11-09T09:20:55.794Z,9.61
2022-11-09T09:23:44.763Z,9.61
2022-11-09T09:26:35.759Z,9.61
2022-11-09T09:29:23.577Z,9.61
2022-11-09T09:32:15.187Z,9.61
2022-11-09T09:35:04.381Z,9.57
2022-11-09T09:37:58.550Z,9.68
2022-11-09T09:40:59.133Z,9.72
2022-11-09T09:43:54.327Z,9.75
2022-11-09T09:46:53.826Z,9.79
2022-11-09T09:49:47.019Z,9.81
2022-11-09T09:52:54.121Z,9.80
2022-11-09T09:56:04.891Z,9.87
2022-11-09T09:59:01.643Z,9.98
2022-11-09T10:01:52.356Z,9.98
2022-11-09T10:04:43.553Z,10.02
2022-11-09T10:07:48.625Z,10.11
2022-11-09T10:10:50.732Z,10.11
2022-11-09T10:14:17.125Z,10.17
2022-11-09T10:17:26.762Z,10.29
2022-11-09T10:20:38.247Z,10.41
2022-11-09T10:23:53.075Z,10.45
2022-11-09T10:26:49.336Z,10.52
2022-11-09T10:29:47.791Z,10.53
2022-11-09T10:32:36.320Z,10.55
2022-11-09T10:35:31.282Z,10.65
2022-11-09T10:38:26.964Z,10.77
2022-11-09T10:41:29.549Z,10.83
2022-11-09T10:44:20.734Z,10.93
2022-11-09T10:47:14.166Z,11.03
2022-11-09T10:50:23.972Z,11.02
2022-11-09T10:53:19.311Z,11.11
2022-11-09T10:56:21.357Z,11.29
2022-11-09T10:59:42.027Z,11.43
2022-11-09T11:02:50.281Z,11.65
2022-11-09T11:05:39.862Z,11.76
2022-11-09T11:08:33.274Z,11.85
2022-11-09T11:11:36.919Z,11.98
2022-11-09T11:14:34.291Z,12.05
2022-11-09T11:17:36.657Z,12.19
2022-11-09T11:20:31.816Z,12.20
2022-11-09T11:23:27.120Z,12.27
2022-11-09T11:26:42.253Z,12.57
2022-11-09T11:29:46.462Z,12.68
2022-11-09T11:32:34.832Z,12.79
2022-11-09T11:35:36.046Z,12.86
2022-11-09T11:38:33.960Z,13.08
2022-11-09T11:42:03.886Z,13.26
2022-11-09T11:49:09.220Z,13.52
2022-11-09T11:52:09.114Z,13.68
2022-11-09T11:55:23.190Z,13.87
2022-11-09T11:58:31.935Z,14.05
2022-11-09T12:01:40.275Z,14.13
2022-11-09T12:04:51.605Z,14.03
2022-11-09T12:07:57.282Z,14.16
2022-11-09T12:11:00.824Z,14.34
2022-11-09T12:14:04.135Z,14.33
2022-11-09T12:17:02.797Z,14.45
2022-11-09T12:20:17.380Z,14.66
2022-11-09T12:23:31.813Z,14.66
2022-11-09T12:27:04.644Z,14.74
2022-11-09T12:30:23.465Z,14.83
2022-11-09T12:33:21.721Z,14.77
2022-11-09T12:36:18.002Z,14.83
2022-11-09T12:39:21.194Z,14.87
2022-11-09T12:42:23.856Z,14.85
2022-11-09T12:45:27.750Z,14.98
2022-11-09T12:48:25.458Z,14.84
2022-11-09T12:51:13.530Z,14.91
2022-11-09T12:54:14.027Z,15.15
2022-11-09T12:57:07.104Z,15.16
2022-11-09T12:59:57.950Z,15.18
2022-11-09T13:03:02.943Z,15.23
2022-11-09T13:06:14.212Z,15.12
2022-11-09T13:09:21.305Z,15.06
2022-11-09T13:12:21.430Z,14.95
2022-11-09T13:15:32.798Z,15.01
2022-11-09T13:18:51.457Z,15.00
2022-11-09T13:21:43.313Z,15.07
2022-11-09T13:25:01.119Z,15.02
2022-11-09T13:27:51.022Z,14.85
2022-11-09T13:30:44.751Z,14.87
2022-11-09T13:33:34.386Z,14.90
2022-11-09T13:36:22.451Z,14.99
2022-11-09T13:39:32.589Z,15.03
2022-11-09T13:42:30.670Z,15.10
2022-11-09T13:45:32.876Z,15.10
2022-11-09T13:48:37.768Z,15.12
2022-11-09T13:51:42.574Z,14.99
2022-11-09T13:54:32.809Z,15.04
2022-11-09T13:57:22.106Z,14.99
2022-11-09T14:00:23.179Z,15.03
2022-11-09T14:03:22.528Z,15.08
2022-11-09T14:06:14.036Z,15.10
2022-11-09T14:09:04.214Z,15.07
2022-11-09T14:12:11.504Z,15.10
2022-11-09T14:15:35.018Z,15.10
2022-11-09T14:18:44.396Z,15.09
2022-11-09T14:21:44.970Z,15.07
2022-11-09T14:24:34.153Z,15.03
2022-11-09T14:27:24.466Z,15.03
2022-11-09T14:30:22.181Z,14.99
2022-11-09T14:33:26.924Z,14.95
2022-11-09T14:36:15.241Z,14.92
2022-11-09T14:39:07.057Z,14.89
2022-11-09T14:41:55.590Z,14.85
2022-11-09T14:44:45.963Z,14.81
2022-11-09T14:47:37.660Z,14.75
2022-11-09T14:50:30.599Z,14.72
2022-11-09T14:53:22.517Z,14.68
2022-11-09T14:56:17.666Z,14.62
2022-11-09T14:59:08.284Z,14.57
2022-11-09T15:02:06.313Z,14.49
2022-11-09T15:05:00.848Z,14.43
2022-11-09T15:07:50.420Z,14.39
2022-11-09T15:10:42.097Z,14.34
2022-11-09T15:13:35.286Z,14.29
2022-11-09T15:16:25.468Z,14.23
2022-11-09T15:19:28.616Z,14.18
2022-11-09T15:22:54.450Z,14.10
2022-11-09T15:25:57.217Z,14.03
2022-11-09T15:28:50.634Z,13.97
2022-11-09T15:31:38.203Z,13.92
2022-11-09T15:34:30.172Z,13.86
2022-11-09T15:37:26.504Z,13.78
2022-11-09T15:40:21.315Z,13.72
2022-11-09T15:43:09.079Z,13.65
2022-11-09T15:46:00.014Z,13.59
2022-11-09T15:48:50.644Z,13.54
2022-11-09T15:51:38.736Z,13.48
2022-11-09T15:54:28.343Z,13.41
2022-11-09T15:57:22.073Z,13.36
2022-11-09T16:00:19.412Z,13.29
2022-11-09T16:03:11.916Z,13.24
2022-11-09T16:06:00.800Z,13.19
2022-11-09T16:08:51.012Z,13.15
2022-11-09T16:11:42.068Z,13.08
2022-11-09T16:14:35.126Z,13.04
2022-11-09T16:17:23.054Z,12.98
2022-11-09T16:20:12.129Z,12.94
2022-11-09T16:23:00.282Z,12.90
2022-11-09T16:25:51.310Z,12.86
2022-11-09T16:28:40.151Z,12.82
2022-11-09T16:31:50.228Z,12.78
2022-11-09T16:34:42.563Z,12.74
2022-11-09T16:37:37.904Z,12.72
2022-11-09T16:40:29.075Z,12.69
2022-11-09T16:43:17.358Z,12.66
2022-11-09T16:46:06.052Z,12.63
2022-11-09T16:48:57.932Z,12.60
2022-11-09T16:51:48.729Z,12.56
2022-11-09T16:54:36.555Z,12.54
2022-11-09T16:57:24.076Z,12.51
2022-11-09T17:00:13.960Z,12.47
2022-11-09T17:03:03.947Z,12.45
2022-11-09T17:05:52.926Z,12.42
2022-11-09T17:08:42.104Z,12.40
2022-11-09T17:11:29.592Z,12.37
2022-11-09T17:14:17.162Z,12.34
2022-11-09T17:17:04.911Z,12.31
2022-11-09T17:19:52.857Z,12.28
2022-11-09T17:22:46.022Z,12.26
2022-11-09T17:25:34.108Z,12.23
2022-11-09T17:28:21.860Z,12.21
2022-11-09T17:31:11.023Z,12.19
2022-11-09T17:34:01.345Z,12.16
2022-11-09T17:37:03.568Z,12.14
2022-11-09T17:39:53.399Z,12.12
2022-11-09T17:42:41.266Z,12.10
2022-11-09T17:45:29.092Z,12.08
2022-11-09T17:48:16.495Z,12.06
2022-11-09T17:51:06.671Z,12.04
2022-11-09T17:53:54.154Z,12.02
2022-11-09T17:56:43.511Z,12.00
2022-11-09T17:59:32.700Z,11.98
2022-11-09T18:02:20.712Z,11.95
2022-11-09T18:05:14.027Z,11.93
2022-11-09T18:08:01.997Z,11.93
2022-11-09T18:10:54.786Z,11.91
2022-11-09T18:13:44.950Z,12.03
2022-11-09T18:16:32.294Z,11.89
2022-11-09T18:19:19.805Z,11.84
2022-11-09T18:22:12.539Z,11.83
2022-11-09T18:25:00.797Z,11.80
2022-11-09T18:27:49.461Z,11.80
2022-11-09T18:30:41.690Z,11.80
2022-11-09T18:33:30.131Z,11.82
2022-11-09T18:36:21.425Z,11.78
2022-11-09T18:39:09.599Z,11.82
2022-11-09T18:42:00.360Z,11.79
2022-11-09T18:44:48.110Z,11.84
2022-11-09T18:47:37.495Z,11.83
2022-11-09T18:50:24.935Z,11.75
2022-11-09T18:53:12.550Z,11.77
2022-11-09T18:56:06.556Z,11.74
2022-11-09T18:58:56.642Z,11.82
2022-11-09T19:01:51.519Z,11.81
2022-11-09T19:04:40.842Z,11.92
2022-11-09T19:07:28.845Z,11.93
2022-11-09T19:10:17.046Z,11.75
2022-11-09T19:13:05.598Z,11.78
2022-11-09T19:15:58.398Z,11.76
2022-11-09T19:18:46.962Z,11.86
2022-11-09T19:21:47.040Z,11.77
2022-11-09T19:24:37.523Z,11.77
2022-11-09T19:27:28.676Z,11.82
2022-11-09T19:30:16.966Z,11.81
2022-11-09T19:33:04.693Z,11.83
2022-11-09T19:36:23.128Z,11.76
2022-11-09T19:39:02.333Z,11.75
2022-11-09T19:41:50.151Z,11.77
2022-11-09T19:44:37.589Z,11.76
2022-11-09T19:47:25.205Z,11.77
2022-11-09T19:50:15.573Z,11.78
2022-11-09T19:53:06.759Z,11.74
2022-11-09T19:56:06.237Z,11.74
2022-11-09T19:58:56.720Z,11.71
2022-11-09T20:01:44.829Z,11.68
2022-11-09T20:04:33.147Z,11.68
2022-11-09T20:07:23.209Z,11.65
2022-11-09T20:10:12.360Z,11.65
2022-11-09T20:13:03.549Z,11.60
2022-11-09T20:15:56.252Z,11.58
2022-11-09T20:18:44.086Z,11.57
2022-11-09T20:21:32.627Z,11.56
2022-11-09T20:24:20.648Z,11.59
2022-11-09T20:27:13.878Z,11.54
2022-11-09T20:30:21.856Z,11.55
2022-11-09T20:33:13.781Z,11.50
2022-11-09T20:36:11.017Z,11.46
2022-11-09T20:39:00.766Z,11.44
2022-11-09T20:41:48.741Z,11.45
2022-11-09T20:44:37.442Z,11.42
2022-11-09T20:48:07.610Z,11.44
2022-11-09T20:50:53.050Z,11.39
2022-11-09T20:53:40.625Z,11.36
2022-11-09T20:56:28.085Z,11.37
2022-11-09T20:59:15.894Z,11.38
2022-11-09T21:02:03.884Z,11.37
2022-11-09T21:04:53.017Z,11.39
2022-11-09T21:07:40.918Z,11.35
2022-11-09T21:10:28.702Z,11.31
2022-11-09T21:13:16.649Z,11.34
2022-11-09T21:16:15.296Z,11.35
2022-11-09T21:19:03.210Z,11.38
2022-11-09T21:21:54.463Z,11.35
2022-11-09T21:24:59.521Z,11.36
2022-11-09T21:28:05.033Z,11.44
2022-11-09T21:30:55.050Z,11.44
2022-11-09T21:33:47.949Z,11.48
2022-11-09T21:36:35.449Z,11.43
2022-11-09T21:39:26.198Z,11.41
2022-11-09T21:42:16.461Z,11.44
2022-11-09T21:45:13.135Z,11.43
2022-11-09T21:48:00.949Z,11.44
2022-11-09T21:50:52.772Z,11.44
2022-11-09T21:53:40.887Z,11.49
2022-11-09T21:56:53.751Z,11.46
2022-11-09T21:59:47.453Z,11.47
2022-11-09T22:02:40.844Z,11.46
2022-11-09T22:05:29.640Z,11.45
2022-11-09T22:08:17.548Z,11.45
2022-11-09T22:11:07.026Z,11.44
2022-11-09T22:14:18.728Z,11.44
2022-11-09T22:17:09.429Z,11.44
2022-11-09T22:20:20.791Z,11.43
2022-11-09T22:23:11.386Z,11.40
2022-11-09T22:26:04.919Z,11.44
2022-11-09T22:28:52.729Z,11.37
2022-11-09T22:31:47.610Z,11.37
2022-11-09T22:34:37.165Z,11.35
2022-11-09T22:37:27.330Z,11.38
2022-11-09T22:40:14.834Z,11.38
2022-11-09T22:43:02.426Z,11.33
2022-11-09T22:45:50.012Z,11.33
2022-11-09T22:48:40.264Z,11.35
2022-11-09T22:51:27.860Z,11.26
2022-11-09T22:54:15.379Z,11.29
2022-11-09T22:57:04.265Z,11.23
2022-11-09T22:59:52.007Z,11.21
2022-11-09T23:02:39.781Z,11.21
2022-11-09T23:05:30.897Z,11.19
2022-11-09T23:08:18.568Z,11.24
2022-11-09T23:11:06.994Z,11.17
2022-11-09T23:13:58.354Z,11.15
2022-11-09T23:16:47.762Z,11.13
2022-11-09T23:19:34.415Z,11.13
2022-11-09T23:22:23.315Z,11.10
2022-11-09T23:25:29.482Z,11.07
2022-11-09T23:28:18.670Z,11.06
2022-11-09T23:31:09.809Z,11.08
2022-11-09T23:33:58.893Z,11.07
2022-11-09T23:36:46.560Z,11.04
2022-11-09T23:39:35.277Z,11.04
2022-11-09T23:42:22.557Z,11.02
2022-11-09T23:45:11.163Z,11.01
2022-11-09T23:47:59.015Z,11.00
2022-11-09T23:50:48.734Z,10.99
2022-11-09T23:53:37.408Z,10.98
2022-11-09T23:56:26.281Z,10.94
2022-11-09T23:59:13.847Z,10.93
